createdAt,value
2018-06-02T00:02:21.174Z,101331.94
2018-06-02T00:04:48.740Z,101330.61
2018-06-02T00:07:16.307Z,101326.86
2018-06-02T00:09:43.874Z,101330.62
2018-06-02T00:12:11.471Z,101328.80
2018-06-02T00:14:39.041Z,101334.44
2018-06-02T00:17:06.626Z,101335.27
2018-06-02T00:19:34.186Z,101331.96
2018-06-02T00:22:01.751Z,101328.14
2018-06-02T00:24:29.337Z,101336.13
2018-06-02T00:26:56.898Z,101333.85
2018-06-02T00:29:24.464Z,101335.37
2018-06-02T00:31:52.035Z,101336.86
2018-06-02T00:34:19.613Z,101341.28
2018-06-02T00:36:47.183Z,101339.88
2018-06-02T00:39:14.751Z,101341.27
2018-06-02T00:41:42.330Z,101347.40
2018-06-02T00:44:09.903Z,101341.23
2018-06-02T00:46:37.477Z,101334.94
2018-06-02T00:49:05.054Z,101333.33
2018-06-02T00:51:32.624Z,101329.07
2018-06-02T00:54:00.194Z,101328.87
2018-06-02T00:56:27.772Z,101325.69
2018-06-02T00:58:55.336Z,101321.22
2018-06-02T01:01:22.955Z,101331.34
2018-06-02T01:03:50.525Z,101331.53
2018-06-02T01:06:18.093Z,101325.79
2018-06-02T01:08:45.693Z,101338.17
2018-06-02T01:11:13.262Z,101337.02
2018-06-02T01:13:40.839Z,101335.89
2018-06-02T01:16:08.418Z,101342.78
2018-06-02T01:18:35.991Z,101343.25
2018-06-02T01:21:03.586Z,101345.37
2018-06-02T01:23:31.154Z,101351.00
2018-06-02T01:25:58.734Z,101352.73
2018-06-02T01:28:26.317Z,101355.43
2018-06-02T01:30:53.890Z,101353.84
2018-06-02T01:33:21.461Z,101358.72
2018-06-02T01:35:49.045Z,101351.17
2018-06-02T01:38:16.641Z,101361.53
2018-06-02T01:40:44.208Z,101354.56
2018-06-02T01:43:11.776Z,101360.38
2018-06-02T01:45:39.364Z,101356.54
2018-06-02T01:48:06.941Z,101354.58
2018-06-02T01:50:34.503Z,101356.15
2018-06-02T01:53:02.070Z,101361.45
2018-06-02T01:55:29.637Z,101344.56
2018-06-02T01:57:57.215Z,101356.02
2018-06-02T02:00:24.774Z,101355.69
2018-06-02T02:02:52.350Z,101361.80
2018-06-02T02:05:19.913Z,101355.38
2018-06-02T02:07:47.513Z,101357.67
2018-06-02T02:10:15.083Z,101362.77
2018-06-02T02:12:42.654Z,101357.19
2018-06-02T02:15:10.243Z,101349.52
2018-06-02T02:17:37.813Z,101350.28
2018-06-02T02:20:05.375Z,101355.20
2018-06-02T02:22:32.946Z,101355.45
2018-06-02T02:25:00.512Z,101352.93
2018-06-02T02:27:28.090Z,101346.64
2018-06-02T02:29:55.662Z,101357.59
2018-06-02T02:32:23.237Z,101354.48
2018-06-02T02:34:50.811Z,101370.70
2018-06-02T02:37:18.386Z,101361.59
2018-06-02T02:39:45.950Z,101354.80
2018-06-02T02:42:13.521Z,101351.92
2018-06-02T02:44:41.082Z,101338.42
2018-06-02T02:47:08.667Z,101337.56
2018-06-02T02:49:36.246Z,101347.07
2018-06-02T02:52:03.821Z,101337.45
2018-06-02T02:54:31.392Z,101331.57
2018-06-02T02:56:58.956Z,101328.00
2018-06-02T02:59:26.616Z,101326.58
2018-06-02T03:01:54.186Z,101333.52
2018-06-02T03:04:21.758Z,101334.42
2018-06-02T03:06:49.338Z,101338.25
2018-06-02T03:09:16.908Z,101333.52
2018-06-02T03:11:44.471Z,101337.47
2018-06-02T03:14:12.057Z,101331.52
2018-06-02T03:16:39.623Z,101330.16
2018-06-02T03:19:07.194Z,101329.52
2018-06-02T03:21:34.801Z,101326.41
2018-06-02T03:24:02.390Z,101321.59
2018-06-02T03:26:29.958Z,101321.42
2018-06-02T03:28:57.524Z,101323.02
2018-06-02T03:31:25.087Z,101314.76
2018-06-02T03:33:52.648Z,101319.27
2018-06-02T03:36:20.224Z,101320.54
2018-06-02T03:38:47.794Z,101319.44
2018-06-02T03:41:15.362Z,101323.91
2018-06-02T03:43:42.931Z,101310.83
2018-06-02T03:46:10.637Z,101319.37
2018-06-02T03:48:38.215Z,101319.89
2018-06-02T03:51:05.787Z,101316.41
2018-06-02T03:53:33.363Z,101317.60
2018-06-02T03:56:00.930Z,101328.07
2018-06-02T03:58:28.497Z,101324.31
2018-06-02T04:00:56.070Z,101318.11
2018-06-02T04:03:23.630Z,101306.70
2018-06-02T04:05:51.200Z,101299.22
2018-06-02T04:08:18.762Z,101313.31
2018-06-02T04:10:46.334Z,101256.70
2018-06-02T04:13:13.901Z,101308.96
2018-06-02T04:15:41.479Z,101306.88
2018-06-02T04:18:09.048Z,101296.22
2018-06-02T04:20:36.650Z,101300.11
2018-06-02T04:23:04.328Z,101294.36
2018-06-02T04:25:31.902Z,101297.66
2018-06-02T04:27:59.491Z,101298.86
2018-06-02T04:30:27.062Z,101291.10
2018-06-02T04:32:54.628Z,101295.59
2018-06-02T04:35:22.191Z,101301.73
2018-06-02T04:37:49.759Z,101295.84
2018-06-02T04:40:17.326Z,101302.89
2018-06-02T04:42:44.894Z,101291.92
2018-06-02T04:45:12.459Z,101285.54
2018-06-02T04:47:40.027Z,101288.05
2018-06-02T04:50:07.594Z,101279.34
2018-06-02T04:52:35.169Z,101288.75
2018-06-02T04:55:02.751Z,101284.07
2018-06-02T04:57:30.327Z,101277.66
2018-06-02T04:59:57.895Z,101282.20
2018-06-02T05:02:25.475Z,101285.67
2018-06-02T05:04:53.042Z,101282.26
2018-06-02T05:07:20.624Z,101273.81
2018-06-02T05:09:48.188Z,101270.30
2018-06-02T05:12:15.752Z,101272.76
2018-06-02T05:14:43.316Z,101256.61
2018-06-02T05:17:10.888Z,101273.20
2018-06-02T05:19:38.465Z,101269.30
2018-06-02T05:22:06.030Z,101266.09
2018-06-02T05:24:33.601Z,101270.02
2018-06-02T05:27:01.183Z,101270.15
2018-06-02T05:29:28.755Z,101259.89
2018-06-02T05:31:56.321Z,101267.77
2018-06-02T05:34:23.916Z,101270.06
2018-06-02T05:36:51.491Z,101269.80
2018-06-02T05:39:19.055Z,101266.59
2018-06-02T05:41:46.623Z,101251.00
2018-06-02T05:44:14.193Z,101264.24
2018-06-02T05:46:41.770Z,101265.45
2018-06-02T05:49:09.345Z,101268.30
2018-06-02T05:51:36.909Z,101263.05
2018-06-02T05:54:04.483Z,101260.13
2018-06-02T05:56:32.055Z,101268.19
2018-06-02T05:58:59.623Z,101259.95
2018-06-02T06:01:27.318Z,101266.61
2018-06-02T06:03:54.908Z,101267.04
2018-06-02T06:06:22.471Z,101268.30
2018-06-02T06:08:50.049Z,101268.81
2018-06-02T06:11:17.614Z,101265.66
2018-06-02T06:13:45.178Z,101259.22
2018-06-02T06:16:12.764Z,101261.27
2018-06-02T06:18:40.326Z,101268.96
2018-06-02T06:21:07.901Z,101268.04
2018-06-02T06:23:35.471Z,101265.54
2018-06-02T06:26:03.051Z,101253.60
2018-06-02T06:28:30.642Z,101254.90
2018-06-02T06:30:58.271Z,101252.31
2018-06-02T06:33:25.893Z,101258.80
2018-06-02T06:35:53.471Z,101258.43
2018-06-02T06:38:21.126Z,101249.89
2018-06-02T06:40:48.726Z,101253.61
2018-06-02T06:43:16.312Z,101246.84
2018-06-02T06:45:43.900Z,101245.62
2018-06-02T06:48:11.740Z,101256.55
2018-06-02T06:50:39.377Z,101255.17
2018-06-02T06:53:06.921Z,101251.97
2018-06-02T06:55:34.501Z,101252.89
2018-06-02T06:58:02.071Z,101248.55
2018-06-02T07:00:29.653Z,101239.38
2018-06-02T07:02:57.315Z,101249.23
2018-06-02T07:05:24.894Z,101250.88
2018-06-02T07:07:52.463Z,101244.61
2018-06-02T07:10:20.039Z,101245.90
2018-06-02T07:12:47.632Z,101241.84
2018-06-02T07:15:15.211Z,101244.41
2018-06-02T07:17:42.803Z,101239.60
2018-06-02T07:20:10.392Z,101242.03
2018-06-02T07:22:37.959Z,101233.63
2018-06-02T07:25:05.559Z,101234.19
2018-06-02T07:27:33.163Z,101238.21
2018-06-02T07:30:00.794Z,101234.41
2018-06-02T07:32:28.367Z,101232.09
2018-06-02T07:34:55.952Z,101237.00
2018-06-02T07:37:23.525Z,101238.86
2018-06-02T07:39:52.026Z,101240.28
2018-06-02T07:42:19.619Z,101228.78
2018-06-02T07:44:47.201Z,101219.50
2018-06-02T07:47:14.815Z,101219.95
2018-06-02T07:49:42.412Z,101218.66
2018-06-02T07:52:10.021Z,101226.22
2018-06-02T07:54:37.615Z,101233.37
2018-06-02T07:57:05.246Z,101229.00
2018-06-02T07:59:32.820Z,101214.39
2018-06-02T08:02:00.406Z,101230.20
2018-06-02T08:04:27.995Z,101226.75
2018-06-02T08:06:55.568Z,101213.82
2018-06-02T08:09:23.144Z,101220.11
2018-06-02T08:11:50.739Z,101217.98
2018-06-02T08:14:18.318Z,101209.03
2018-06-02T08:16:45.898Z,101203.99
2018-06-02T08:19:13.483Z,101208.78
2018-06-02T08:21:41.066Z,101204.64
2018-06-02T08:24:08.651Z,101202.44
2018-06-02T08:26:36.258Z,101204.77
2018-06-02T08:29:03.851Z,101210.06
2018-06-02T08:31:31.431Z,101200.22
2018-06-02T08:33:58.998Z,101203.59
2018-06-02T08:36:26.592Z,101199.45
2018-06-02T08:38:54.185Z,101201.88
2018-06-02T08:41:21.758Z,101205.05
2018-06-02T08:43:49.332Z,101208.89
2018-06-02T08:46:16.931Z,101217.34
2018-06-02T08:48:44.515Z,101215.28
2018-06-02T08:51:12.094Z,101223.89
2018-06-02T08:53:39.702Z,101209.38
2018-06-02T08:56:07.270Z,101209.31
2018-06-02T08:58:34.841Z,101210.25
2018-06-02T09:01:02.410Z,101205.10
2018-06-02T09:03:29.975Z,101206.18
2018-06-02T09:05:57.539Z,101204.22
2018-06-02T09:08:25.115Z,101202.75
2018-06-02T09:10:52.674Z,101189.95
2018-06-02T09:13:20.244Z,101169.11
2018-06-02T09:15:47.815Z,101196.83
2018-06-02T09:18:15.412Z,101208.94
2018-06-02T09:20:42.995Z,101205.27
2018-06-02T09:23:10.558Z,101196.14
2018-06-02T09:25:38.124Z,101210.47
2018-06-02T09:28:05.694Z,101198.70
2018-06-02T09:30:33.266Z,101203.49
2018-06-02T09:33:00.835Z,101196.41
2018-06-02T09:35:28.406Z,101205.92
2018-06-02T09:37:55.973Z,101195.48
2018-06-02T09:40:23.554Z,101191.64
2018-06-02T09:42:51.127Z,101184.42
2018-06-02T09:45:18.695Z,101184.98
2018-06-02T09:47:46.290Z,101192.25
2018-06-02T09:50:13.854Z,101191.81
2018-06-02T09:52:41.445Z,101193.64
2018-06-02T09:55:09.008Z,101183.46
2018-06-02T09:57:36.577Z,101194.20
2018-06-02T10:00:04.214Z,101185.41
2018-06-02T10:02:31.781Z,101182.81
2018-06-02T10:04:59.349Z,101183.58
2018-06-02T10:07:26.936Z,101189.22
2018-06-02T10:09:54.537Z,101192.94
2018-06-02T10:12:22.100Z,101195.80
2018-06-02T10:14:49.672Z,101197.22
2018-06-02T10:17:17.244Z,101189.00
2018-06-02T10:19:44.815Z,101190.34
2018-06-02T10:22:12.387Z,101178.55
2018-06-02T10:24:39.950Z,101185.13
2018-06-02T10:27:07.548Z,101191.25
2018-06-02T10:29:35.167Z,101193.53
2018-06-02T10:32:02.759Z,101182.86
2018-06-02T10:34:30.347Z,101185.20
2018-06-02T10:36:57.924Z,101180.61
2018-06-02T10:39:25.505Z,101182.21
2018-06-02T10:41:53.085Z,101184.62
2018-06-02T10:44:20.698Z,101176.58
2018-06-02T10:46:48.280Z,101177.13
2018-06-02T10:49:15.860Z,101180.25
2018-06-02T10:51:43.445Z,101178.00
2018-06-02T10:54:11.048Z,101180.41
2018-06-02T10:56:38.631Z,101172.91
2018-06-02T10:59:06.303Z,101178.58
2018-06-02T11:01:33.900Z,101163.63
2018-06-02T11:04:01.490Z,101167.35
2018-06-02T11:06:29.216Z,101154.00
2018-06-02T11:08:56.839Z,101171.48
2018-06-02T11:11:24.418Z,101150.94
2018-06-02T11:13:52.042Z,101166.92
2018-06-02T11:16:19.610Z,101160.77
2018-06-02T11:18:47.186Z,101167.01
2018-06-02T11:21:14.818Z,101153.14
2018-06-02T11:23:42.403Z,101162.66
2018-06-02T11:26:09.982Z,101159.63
2018-06-02T11:28:37.572Z,101173.62
2018-06-02T11:31:05.188Z,101151.19
2018-06-02T11:33:32.771Z,101161.85
2018-06-02T11:36:00.350Z,101160.43
2018-06-02T11:38:27.943Z,101153.92
2018-06-02T11:40:55.534Z,101150.70
2018-06-02T11:43:23.150Z,101145.41
2018-06-02T11:45:50.751Z,101134.89
2018-06-02T11:48:18.327Z,101147.58
2018-06-02T11:50:45.961Z,101133.13
2018-06-02T11:53:13.543Z,101136.89
2018-06-02T11:55:41.139Z,101143.48
2018-06-02T11:58:08.725Z,101126.22
2018-06-02T12:00:36.298Z,101125.56
2018-06-02T12:03:03.896Z,101125.34
2018-06-02T12:05:31.511Z,101121.66
2018-06-02T12:07:59.103Z,101130.55
2018-06-02T12:10:26.694Z,101124.55
2018-06-02T12:12:54.285Z,101115.74
2018-06-02T12:15:21.866Z,101121.06
2018-06-02T12:17:49.439Z,101118.08
2018-06-02T12:20:17.019Z,101123.18
2018-06-02T12:22:44.595Z,101118.86
2018-06-02T12:25:12.179Z,101120.72
2018-06-02T12:27:39.763Z,101102.80
2018-06-02T12:30:07.339Z,101110.77
2018-06-02T12:32:34.924Z,101117.62
2018-06-02T12:35:02.525Z,101106.31
2018-06-02T12:37:30.139Z,101098.46
2018-06-02T12:39:57.712Z,101102.48
2018-06-02T12:42:25.298Z,101094.64
2018-06-02T12:44:52.866Z,101096.13
2018-06-02T12:47:20.425Z,101087.45
2018-06-02T12:49:48.007Z,101091.31
2018-06-02T12:52:15.576Z,101095.20
2018-06-02T12:54:43.162Z,101094.47
2018-06-02T12:57:10.730Z,101089.59
2018-06-02T12:59:38.311Z,101088.34
2018-06-02T13:02:05.907Z,101077.95
2018-06-02T13:04:33.505Z,101080.14
2018-06-02T13:07:01.102Z,101074.41
2018-06-02T13:09:28.712Z,101088.11
2018-06-02T13:11:56.298Z,101072.00
2018-06-02T13:14:23.894Z,101079.48
2018-06-02T13:16:51.483Z,101077.86
2018-06-02T13:19:19.087Z,101075.23
2018-06-02T13:21:46.684Z,101070.09
2018-06-02T13:24:14.270Z,101067.73
2018-06-02T13:26:41.862Z,101061.44
2018-06-02T13:29:09.433Z,101068.17
2018-06-02T13:31:37.043Z,101068.78
2018-06-02T13:34:04.767Z,101070.20
2018-06-02T13:36:32.354Z,101060.00
2018-06-02T13:38:59.969Z,101057.16
2018-06-02T13:41:27.538Z,101062.45
2018-06-02T13:43:55.138Z,101060.42
2018-06-02T13:46:22.709Z,101061.40
2018-06-02T13:48:50.330Z,101055.98
2018-06-02T13:51:17.977Z,101057.83
2018-06-02T13:53:45.550Z,101048.69
2018-06-02T13:56:13.878Z,101053.73
2018-06-02T13:58:41.464Z,101054.42
2018-06-02T14:01:09.240Z,101045.48
2018-06-02T14:03:36.856Z,101041.52
2018-06-02T14:06:04.474Z,101045.75
2018-06-02T14:08:32.084Z,101046.08
2018-06-02T14:10:59.749Z,101043.80
2018-06-02T14:13:27.331Z,101042.63
2018-06-02T14:15:54.912Z,101039.16
2018-06-02T14:18:22.490Z,101043.68
2018-06-02T14:20:50.085Z,101038.78
2018-06-02T14:23:17.680Z,101037.55
2018-06-02T14:25:46.709Z,101036.72
2018-06-02T14:28:14.306Z,101033.25
2018-06-02T14:30:42.912Z,101032.35
2018-06-02T14:33:10.510Z,101030.17
2018-06-02T14:35:38.106Z,101020.22
2018-06-02T14:38:05.868Z,101021.73
2018-06-02T14:40:33.469Z,101020.63
2018-06-02T14:43:01.067Z,101025.44
2018-06-02T14:45:28.647Z,101008.34
2018-06-02T14:47:56.211Z,101010.73
2018-06-02T14:50:23.828Z,101021.17
2018-06-02T14:52:51.433Z,101011.17
2018-06-02T14:55:19.034Z,101009.32
2018-06-02T14:57:46.634Z,101003.84
2018-06-02T15:00:14.253Z,101014.08
2018-06-02T15:02:41.826Z,100999.01
2018-06-02T15:05:09.409Z,101005.69
2018-06-02T15:07:36.994Z,101005.12
2018-06-02T15:10:04.576Z,101000.69
2018-06-02T15:12:32.163Z,101001.86
2018-06-02T15:14:59.771Z,101008.20
2018-06-02T15:17:27.379Z,101009.81
2018-06-02T15:19:55.865Z,101012.37
2018-06-02T15:22:23.466Z,101014.73
2018-06-02T15:24:51.162Z,101014.06
2018-06-02T15:27:18.703Z,101011.89
2018-06-02T15:29:46.293Z,101009.24
2018-06-02T15:32:13.918Z,101004.08
2018-06-02T15:34:41.518Z,101007.80
2018-06-02T15:37:09.089Z,101005.10
2018-06-02T15:39:36.679Z,101011.78
2018-06-02T15:42:04.358Z,101011.57
2018-06-02T15:44:31.942Z,101011.21
2018-06-02T15:46:59.535Z,101009.14
2018-06-02T15:49:27.119Z,101012.05
2018-06-02T15:51:54.715Z,101003.09
2018-06-02T15:54:22.314Z,101012.29
2018-06-02T15:56:49.909Z,101008.33
2018-06-02T15:59:17.531Z,101012.55
2018-06-02T16:01:45.172Z,101008.09
2018-06-02T16:04:12.789Z,101006.86
2018-06-02T16:06:40.384Z,101015.35
2018-06-02T16:09:07.977Z,101014.62
2018-06-02T16:11:35.582Z,101008.23
2018-06-02T16:14:03.181Z,101007.97
2018-06-02T16:16:30.779Z,101005.60
2018-06-02T16:18:58.363Z,101007.30
2018-06-02T16:21:25.948Z,101007.89
2018-06-02T16:23:53.558Z,101008.73
2018-06-02T16:26:21.162Z,101008.93
2018-06-02T16:28:48.766Z,101009.00
2018-06-02T16:31:16.386Z,101002.91
2018-06-02T16:33:44.016Z,101010.26
2018-06-02T16:36:12.103Z,101003.45
2018-06-02T16:38:39.853Z,101003.05
2018-06-02T16:41:07.434Z,101009.81
2018-06-02T16:43:35.021Z,101005.73
2018-06-02T16:46:02.659Z,101011.42
2018-06-02T16:48:30.278Z,101010.39
2018-06-02T16:50:57.876Z,101011.04
2018-06-02T16:53:25.610Z,101012.74
2018-06-02T16:55:53.192Z,101008.12
2018-06-02T16:58:20.761Z,101017.27
2018-06-02T17:00:48.346Z,101014.50
2018-06-02T17:03:15.949Z,101016.28
2018-06-02T17:05:43.675Z,101014.46
2018-06-02T17:08:11.244Z,101014.02
2018-06-02T17:10:38.969Z,101016.40
2018-06-02T17:13:06.626Z,101014.72
2018-06-02T17:15:34.878Z,101007.64
2018-06-02T17:18:02.812Z,101025.41
2018-06-02T17:20:30.508Z,101013.09
2018-06-02T17:22:58.102Z,101018.43
2018-06-02T17:25:25.687Z,101014.21
2018-06-02T17:27:53.259Z,101013.38
2018-06-02T17:30:20.835Z,101019.54
2018-06-02T17:32:48.457Z,101023.74
2018-06-02T17:35:16.044Z,101032.64
2018-06-02T17:37:43.630Z,101024.57
2018-06-02T17:40:11.261Z,101028.80
2018-06-02T17:42:38.895Z,101027.05
2018-06-02T17:45:06.503Z,101032.27
2018-06-02T17:47:34.078Z,101030.73
2018-06-02T17:50:01.666Z,101027.00
2018-06-02T17:52:29.237Z,101026.33
2018-06-02T17:54:56.810Z,101031.73
2018-06-02T17:57:25.140Z,101028.55
2018-06-02T17:59:52.726Z,101029.63
2018-06-02T18:02:20.327Z,101032.36
2018-06-02T18:04:47.930Z,101032.63
2018-06-02T18:07:15.516Z,101035.33
2018-06-02T18:09:43.180Z,101027.01
2018-06-02T18:12:10.767Z,101027.50
2018-06-02T18:14:38.361Z,101029.72
2018-06-02T18:17:05.951Z,101032.15
2018-06-02T18:19:33.533Z,101033.44
2018-06-02T18:22:01.129Z,101040.84
2018-06-02T18:24:28.729Z,101035.38
2018-06-02T18:26:56.326Z,101056.17
2018-06-02T18:29:23.930Z,101054.84
2018-06-02T18:31:51.514Z,101048.87
2018-06-02T18:34:19.103Z,101050.37
2018-06-02T18:36:46.696Z,101053.75
2018-06-02T18:39:14.282Z,101067.65
2018-06-02T18:41:41.874Z,101053.84
2018-06-02T18:44:09.482Z,101060.39
2018-06-02T18:46:37.078Z,101062.91
2018-06-02T18:49:04.671Z,101066.30
2018-06-02T18:51:32.299Z,101064.87
2018-06-02T18:53:59.866Z,101066.58
2018-06-02T18:56:27.447Z,101065.81
2018-06-02T18:58:55.031Z,101057.83
2018-06-02T19:01:22.602Z,101071.05
2018-06-02T19:03:50.176Z,101057.58
2018-06-02T19:06:17.756Z,101059.60
2018-06-02T19:08:45.346Z,101063.73
2018-06-02T19:11:12.944Z,101060.43
2018-06-02T19:13:40.545Z,101061.96
2018-06-02T19:16:08.122Z,101056.57
2018-06-02T19:18:35.687Z,101064.56
2018-06-02T19:21:03.273Z,101076.93
2018-06-02T19:23:30.860Z,101075.58
2018-06-02T19:28:25.303Z,101081.98
2018-06-02T19:30:52.886Z,101073.90
2018-06-02T19:33:20.466Z,101064.80
2018-06-02T19:35:48.065Z,101071.88
2018-06-02T19:38:15.672Z,101079.95
2018-06-02T19:40:43.246Z,101075.91
2018-06-02T19:43:10.815Z,101079.04
2018-06-02T19:45:38.378Z,101082.06
2018-06-02T19:48:05.954Z,101081.55
2018-06-02T19:50:33.554Z,101084.22
2018-06-02T19:53:01.118Z,101090.50
2018-06-02T19:55:28.686Z,101088.29
2018-06-02T19:57:56.314Z,101090.30
2018-06-02T20:00:23.874Z,101091.41
2018-06-02T20:02:51.435Z,101092.16
2018-06-02T20:05:19.014Z,101093.66
2018-06-02T20:07:46.583Z,101099.67
2018-06-02T20:10:14.163Z,101100.41
2018-06-02T20:12:45.009Z,101099.73
2018-06-02T20:15:12.600Z,101098.69
2018-06-02T20:17:40.159Z,101103.84
2018-06-02T20:20:07.734Z,101103.19
2018-06-02T20:22:35.328Z,101112.36
2018-06-02T20:25:02.926Z,101106.72
2018-06-02T20:27:30.502Z,101112.13
2018-06-02T20:29:58.068Z,101109.13
2018-06-02T20:32:25.648Z,101110.70
2018-06-02T20:34:53.225Z,101109.66
2018-06-02T20:37:20.841Z,101110.26
2018-06-02T20:39:48.406Z,101114.25
2018-06-02T20:42:15.982Z,101116.02
2018-06-02T20:44:43.552Z,101121.62
2018-06-02T20:47:11.115Z,101117.39
2018-06-02T20:49:38.741Z,101123.09
2018-06-02T20:52:06.339Z,101118.80
2018-06-02T20:54:33.946Z,101071.99
2018-06-02T20:57:01.549Z,101120.30
2018-06-02T20:59:29.158Z,101110.19
2018-06-02T21:01:56.727Z,101123.20
2018-06-02T21:04:24.352Z,101120.16
2018-06-02T21:06:51.926Z,101117.20
2018-06-02T21:09:19.522Z,101127.14
2018-06-02T21:11:47.092Z,101123.77
2018-06-02T21:14:14.762Z,101123.27
2018-06-02T21:16:42.334Z,101124.27
2018-06-02T21:19:09.914Z,101119.84
2018-06-02T21:21:37.490Z,101121.92
2018-06-02T21:24:05.082Z,101122.14
2018-06-02T21:26:32.646Z,101129.13
2018-06-02T21:29:00.231Z,101128.11
2018-06-02T21:31:27.818Z,101133.53
2018-06-02T21:33:55.423Z,101133.29
2018-06-02T21:36:23.011Z,101130.61
2018-06-02T21:38:50.598Z,101135.16
2018-06-02T21:41:18.170Z,101145.22
2018-06-02T21:43:45.762Z,101148.05
2018-06-02T21:46:13.402Z,101146.32
2018-06-02T21:48:40.939Z,101147.38
2018-06-02T21:51:08.558Z,101148.01
2018-06-02T21:53:36.127Z,101151.39
2018-06-02T21:56:03.735Z,101149.65
2018-06-02T21:58:31.316Z,101146.06
2018-06-02T22:00:59.114Z,101159.30
2018-06-02T22:03:26.740Z,101161.38
2018-06-02T22:05:54.341Z,101161.72
2018-06-02T22:08:22.310Z,101166.95
2018-06-02T22:10:49.990Z,101168.89
2018-06-02T22:13:17.627Z,101160.88
2018-06-02T22:15:45.254Z,101166.72
2018-06-02T22:18:12.846Z,101163.00
2018-06-02T22:20:40.451Z,101169.61
2018-06-02T22:23:08.031Z,101154.28
2018-06-02T22:25:35.614Z,101169.81
2018-06-02T22:28:03.221Z,101167.42
2018-06-02T22:30:30.798Z,101169.19
2018-06-02T22:32:58.398Z,101172.95
2018-06-02T22:35:25.990Z,101172.75
2018-06-02T22:37:53.562Z,101168.98
2018-06-02T22:40:21.146Z,101168.00
2018-06-02T22:42:48.795Z,101174.64
2018-06-02T22:45:16.390Z,101174.27
2018-06-02T22:47:43.982Z,101178.32
2018-06-02T22:50:11.592Z,101183.63
2018-06-02T22:52:39.235Z,101181.67
2018-06-02T22:55:06.848Z,101185.08
2018-06-02T22:57:34.486Z,101188.12
2018-06-02T23:00:25.511Z,101183.23
2018-06-02T23:02:53.109Z,101178.86
2018-06-02T23:05:20.730Z,101174.92
2018-06-02T23:07:48.369Z,101190.63
2018-06-02T23:10:15.975Z,101187.09
2018-06-02T23:12:43.571Z,101180.45
2018-06-02T23:15:11.196Z,101180.77
2018-06-02T23:17:38.780Z,101182.61
2018-06-02T23:20:06.392Z,101178.05
2018-06-02T23:22:39.878Z,101178.56
2018-06-02T23:25:08.455Z,101173.20
2018-06-02T23:27:36.092Z,101178.48
2018-06-02T23:30:04.498Z,101177.09
2018-06-02T23:32:32.103Z,101173.05
2018-06-02T23:34:59.680Z,101173.30
2018-06-02T23:37:27.282Z,101173.66
2018-06-02T23:39:54.905Z,101154.22
2018-06-02T23:42:22.502Z,101167.62
2018-06-02T23:44:50.082Z,101154.94
2018-06-02T23:47:17.679Z,101174.11
2018-06-02T23:49:45.290Z,101170.48
2018-06-02T23:52:12.883Z,101172.17
2018-06-02T23:54:40.470Z,101168.59
2018-06-02T23:57:08.060Z,101166.00
2018-06-02T23:59:35.699Z,101168.63
